sensor_id;sensor_type;location;lat;lon;timestamp;P1;durP1;ratioP1;P2;durP2;ratioP2
44885;SDS011;36669;51.428;21.162;2022-08-19T00:00:06;22.70;;;10.85;;
44885;SDS011;36669;51.428;21.162;2022-08-19T00:02:34;20.08;;;11.90;;
44885;SDS011;36669;51.428;21.162;2022-08-19T00:05:00;18.33;;;12.00;;
44885;SDS011;36669;51.428;21.162;2022-08-19T00:07:27;18.88;;;11.63;;
44885;SDS011;36669;51.428;21.162;2022-08-19T00:09:52;16.90;;;11.48;;
44885;SDS011;36669;51.428;21.162;2022-08-19T00:12:18;20.95;;;11.27;;
44885;SDS011;36669;51.428;21.162;2022-08-19T00:14:43;21.00;;;12.25;;
44885;SDS011;36669;51.428;21.162;2022-08-19T00:17:10;20.95;;;11.93;;
44885;SDS011;36669;51.428;21.162;2022-08-19T00:19:37;23.17;;;12.25;;
44885;SDS011;36669;51.428;21.162;2022-08-19T00:22:03;20.40;;;11.68;;
44885;SDS011;36669;51.428;21.162;2022-08-19T00:24:30;17.73;;;11.48;;
44885;SDS011;36669;51.428;21.162;2022-08-19T00:26:56;18.33;;;11.77;;
44885;SDS011;36669;51.428;21.162;2022-08-19T00:29:23;20.05;;;11.88;;
44885;SDS011;36669;51.428;21.162;2022-08-19T00:31:50;17.88;;;12.18;;
44885;SDS011;36669;51.428;21.162;2022-08-19T00:34:16;21.38;;;12.52;;
44885;SDS011;36669;51.428;21.162;2022-08-19T00:36:42;20.40;;;13.05;;
44885;SDS011;36669;51.428;21.162;2022-08-19T00:39:08;17.25;;;11.93;;
44885;SDS011;36669;51.428;21.162;2022-08-19T00:41:34;23.33;;;12.40;;
44885;SDS011;36669;51.428;21.162;2022-08-19T00:44:05;16.30;;;12.30;;
44885;SDS011;36669;51.428;21.162;2022-08-19T00:46:33;20.60;;;12.50;;
44885;SDS011;36669;51.428;21.162;2022-08-19T00:49:00;20.67;;;13.15;;
44885;SDS011;36669;51.428;21.162;2022-08-19T00:51:30;19.27;;;12.02;;
44885;SDS011;36669;51.428;21.162;2022-08-19T00:53:56;23.35;;;12.45;;
44885;SDS011;36669;51.428;21.162;2022-08-19T00:56:23;17.25;;;11.48;;
44885;SDS011;36669;51.428;21.162;2022-08-19T00:58:50;16.92;;;12.05;;
44885;SDS011;36669;51.428;21.162;2022-08-19T01:01:15;18.25;;;12.57;;
44885;SDS011;36669;51.428;21.162;2022-08-19T01:03:41;16.25;;;11.90;;
44885;SDS011;36669;51.428;21.162;2022-08-19T01:06:06;21.77;;;12.75;;
44885;SDS011;36669;51.428;21.162;2022-08-19T01:08:33;13.73;;;11.63;;
44885;SDS011;36669;51.428;21.162;2022-08-19T01:10:58;23.80;;;12.68;;
44885;SDS011;36669;51.428;21.162;2022-08-19T01:13:27;19.77;;;12.48;;
44885;SDS011;36669;51.428;21.162;2022-08-19T01:15:57;21.50;;;12.65;;
44885;SDS011;36669;51.428;21.162;2022-08-19T01:18:35;17.15;;;12.25;;
44885;SDS011;36669;51.428;21.162;2022-08-19T01:21:47;19.17;;;12.70;;
44885;SDS011;36669;51.428;21.162;2022-08-19T01:24:11;17.75;;;12.38;;
44885;SDS011;36669;51.428;21.162;2022-08-19T01:26:40;22.15;;;13.30;;
44885;SDS011;36669;51.428;21.162;2022-08-19T01:29:07;17.77;;;13.05;;
44885;SDS011;36669;51.428;21.162;2022-08-19T01:31:33;25.80;;;13.00;;
44885;SDS011;36669;51.428;21.162;2022-08-19T01:33:59;18.45;;;12.85;;
44885;SDS011;36669;51.428;21.162;2022-08-19T01:36:37;21.00;;;13.07;;
44885;SDS011;36669;51.428;21.162;2022-08-19T01:39:06;22.30;;;12.73;;
44885;SDS011;36669;51.428;21.162;2022-08-19T01:41:34;18.80;;;13.25;;
44885;SDS011;36669;51.428;21.162;2022-08-19T01:44:00;24.75;;;13.13;;
44885;SDS011;36669;51.428;21.162;2022-08-19T01:46:26;17.98;;;13.70;;
44885;SDS011;36669;51.428;21.162;2022-08-19T01:48:51;23.35;;;14.45;;
44885;SDS011;36669;51.428;21.162;2022-08-19T01:51:17;21.05;;;13.73;;
44885;SDS011;36669;51.428;21.162;2022-08-19T01:53:46;20.58;;;13.50;;
44885;SDS011;36669;51.428;21.162;2022-08-19T01:56:12;19.00;;;14.25;;
44885;SDS011;36669;51.428;21.162;2022-08-19T01:58:40;18.45;;;13.07;;
44885;SDS011;36669;51.428;21.162;2022-08-19T02:01:09;20.88;;;13.55;;
44885;SDS011;36669;51.428;21.162;2022-08-19T02:03:35;19.88;;;13.90;;
44885;SDS011;36669;51.428;21.162;2022-08-19T02:06:01;19.55;;;14.40;;
44885;SDS011;36669;51.428;21.162;2022-08-19T02:08:27;21.48;;;13.43;;
44885;SDS011;36669;51.428;21.162;2022-08-19T02:10:55;17.80;;;13.10;;
44885;SDS011;36669;51.428;21.162;2022-08-19T02:13:21;21.10;;;13.02;;
44885;SDS011;36669;51.428;21.162;2022-08-19T02:15:47;19.45;;;13.13;;
44885;SDS011;36669;51.428;21.162;2022-08-19T02:18:14;21.80;;;14.10;;
44885;SDS011;36669;51.428;21.162;2022-08-19T02:20:40;18.52;;;13.05;;
44885;SDS011;36669;51.428;21.162;2022-08-19T02:23:07;16.73;;;13.07;;
44885;SDS011;36669;51.428;21.162;2022-08-19T02:25:34;24.10;;;13.27;;
44885;SDS011;36669;51.428;21.162;2022-08-19T02:28:00;21.85;;;13.93;;
44885;SDS011;36669;51.428;21.162;2022-08-19T02:30:25;18.75;;;13.18;;
44885;SDS011;36669;51.428;21.162;2022-08-19T02:32:51;23.48;;;14.10;;
44885;SDS011;36669;51.428;21.162;2022-08-19T02:35:17;16.60;;;13.10;;
44885;SDS011;36669;51.428;21.162;2022-08-19T02:37:43;20.77;;;13.75;;
44885;SDS011;36669;51.428;21.162;2022-08-19T02:40:10;22.35;;;14.13;;
44885;SDS011;36669;51.428;21.162;2022-08-19T02:42:35;20.23;;;14.13;;
44885;SDS011;36669;51.428;21.162;2022-08-19T02:45:01;20.30;;;13.82;;
44885;SDS011;36669;51.428;21.162;2022-08-19T02:47:27;25.02;;;14.30;;
44885;SDS011;36669;51.428;21.162;2022-08-19T02:49:54;20.42;;;14.38;;
44885;SDS011;36669;51.428;21.162;2022-08-19T02:52:20;22.77;;;13.40;;
44885;SDS011;36669;51.428;21.162;2022-08-19T02:54:46;19.90;;;13.98;;
44885;SDS011;36669;51.428;21.162;2022-08-19T02:57:11;21.33;;;13.57;;
44885;SDS011;36669;51.428;21.162;2022-08-19T02:59:37;22.60;;;14.30;;
44885;SDS011;36669;51.428;21.162;2022-08-19T03:02:02;22.13;;;15.63;;
44885;SDS011;36669;51.428;21.162;2022-08-19T03:04:28;39.28;;;27.58;;
44885;SDS011;36669;51.428;21.162;2022-08-19T03:06:54;21.25;;;14.93;;
44885;SDS011;36669;51.428;21.162;2022-08-19T03:09:19;22.77;;;13.57;;
44885;SDS011;36669;51.428;21.162;2022-08-19T03:11:45;18.08;;;13.25;;
44885;SDS011;36669;51.428;21.162;2022-08-19T03:14:11;20.92;;;13.45;;
44885;SDS011;36669;51.428;21.162;2022-08-19T03:16:45;21.38;;;13.80;;
44885;SDS011;36669;51.428;21.162;2022-08-19T03:19:17;22.20;;;14.18;;
44885;SDS011;36669;51.428;21.162;2022-08-19T03:21:44;21.40;;;13.60;;
44885;SDS011;36669;51.428;21.162;2022-08-19T03:24:10;21.63;;;13.73;;
44885;SDS011;36669;51.428;21.162;2022-08-19T03:26:44;27.85;;;15.48;;
44885;SDS011;36669;51.428;21.162;2022-08-19T03:29:16;20.52;;;14.35;;
44885;SDS011;36669;51.428;21.162;2022-08-19T03:31:44;23.65;;;14.65;;
44885;SDS011;36669;51.428;21.162;2022-08-19T03:34:13;20.88;;;14.50;;
44885;SDS011;36669;51.428;21.162;2022-08-19T03:39:10;22.58;;;13.40;;
44885;SDS011;36669;51.428;21.162;2022-08-19T03:41:37;19.65;;;12.88;;
44885;SDS011;36669;51.428;21.162;2022-08-19T03:44:04;21.23;;;13.43;;
44885;SDS011;36669;51.428;21.162;2022-08-19T03:46:31;21.80;;;13.32;;
44885;SDS011;36669;51.428;21.162;2022-08-19T03:48:59;21.88;;;14.07;;
44885;SDS011;36669;51.428;21.162;2022-08-19T03:51:27;27.55;;;13.93;;
44885;SDS011;36669;51.428;21.162;2022-08-19T03:53:55;20.70;;;13.20;;
44885;SDS011;36669;51.428;21.162;2022-08-19T03:56:23;18.00;;;12.85;;
44885;SDS011;36669;51.428;21.162;2022-08-19T03:58:49;22.27;;;13.45;;
44885;SDS011;36669;51.428;21.162;2022-08-19T04:01:17;20.98;;;13.70;;
44885;SDS011;36669;51.428;21.162;2022-08-19T04:03:44;20.88;;;13.82;;
44885;SDS011;36669;51.428;21.162;2022-08-19T04:06:15;24.02;;;16.05;;
44885;SDS011;36669;51.428;21.162;2022-08-19T04:08:45;27.48;;;14.75;;
44885;SDS011;36669;51.428;21.162;2022-08-19T04:11:12;24.52;;;14.38;;
44885;SDS011;36669;51.428;21.162;2022-08-19T04:13:40;21.23;;;13.75;;
44885;SDS011;36669;51.428;21.162;2022-08-19T04:16:06;19.65;;;13.35;;
44885;SDS011;36669;51.428;21.162;2022-08-19T04:18:35;21.67;;;13.43;;
44885;SDS011;36669;51.428;21.162;2022-08-19T04:21:02;24.30;;;13.05;;
44885;SDS011;36669;51.428;21.162;2022-08-19T04:23:28;25.63;;;12.52;;
44885;SDS011;36669;51.428;21.162;2022-08-19T04:25:54;17.13;;;12.43;;
44885;SDS011;36669;51.428;21.162;2022-08-19T04:28:21;25.88;;;14.43;;
44885;SDS011;36669;51.428;21.162;2022-08-19T04:30:49;22.15;;;12.90;;
44885;SDS011;36669;51.428;21.162;2022-08-19T04:33:17;20.70;;;14.23;;
44885;SDS011;36669;51.428;21.162;2022-08-19T04:35:46;28.42;;;14.45;;
44885;SDS011;36669;51.428;21.162;2022-08-19T04:38:13;20.75;;;13.20;;
44885;SDS011;36669;51.428;21.162;2022-08-19T04:40:41;21.45;;;12.75;;
44885;SDS011;36669;51.428;21.162;2022-08-19T04:43:08;17.23;;;12.25;;
44885;SDS011;36669;51.428;21.162;2022-08-19T04:45:35;22.42;;;12.60;;
44885;SDS011;36669;51.428;21.162;2022-08-19T04:48:02;21.77;;;12.82;;
44885;SDS011;36669;51.428;21.162;2022-08-19T04:50:29;21.88;;;12.40;;
44885;SDS011;36669;51.428;21.162;2022-08-19T04:52:54;18.08;;;12.52;;
44885;SDS011;36669;51.428;21.162;2022-08-19T04:55:20;24.08;;;13.43;;
44885;SDS011;36669;51.428;21.162;2022-08-19T04:57:45;20.63;;;12.15;;
44885;SDS011;36669;51.428;21.162;2022-08-19T05:00:11;21.40;;;13.80;;
44885;SDS011;36669;51.428;21.162;2022-08-19T05:02:37;25.35;;;13.07;;
44885;SDS011;36669;51.428;21.162;2022-08-19T05:05:03;21.23;;;12.32;;
44885;SDS011;36669;51.428;21.162;2022-08-19T05:07:29;19.63;;;11.85;;
44885;SDS011;36669;51.428;21.162;2022-08-19T05:09:55;20.60;;;11.80;;
44885;SDS011;36669;51.428;21.162;2022-08-19T05:12:20;15.40;;;11.15;;
44885;SDS011;36669;51.428;21.162;2022-08-19T05:14:46;20.65;;;10.80;;
44885;SDS011;36669;51.428;21.162;2022-08-19T05:17:13;20.08;;;12.23;;
44885;SDS011;36669;51.428;21.162;2022-08-19T05:19:39;14.70;;;11.32;;
44885;SDS011;36669;51.428;21.162;2022-08-19T05:22:05;17.40;;;11.50;;
44885;SDS011;36669;51.428;21.162;2022-08-19T05:24:30;13.38;;;10.65;;
44885;SDS011;36669;51.428;21.162;2022-08-19T05:26:56;18.02;;;10.85;;
44885;SDS011;36669;51.428;21.162;2022-08-19T05:29:22;20.27;;;10.60;;
44885;SDS011;36669;51.428;21.162;2022-08-19T05:31:49;17.40;;;10.63;;
44885;SDS011;36669;51.428;21.162;2022-08-19T05:34:17;15.18;;;11.00;;
44885;SDS011;36669;51.428;21.162;2022-08-19T05:36:44;16.10;;;10.13;;
44885;SDS011;36669;51.428;21.162;2022-08-19T05:39:19;14.70;;;10.07;;
44885;SDS011;36669;51.428;21.162;2022-08-19T05:41:46;15.27;;;9.73;;
44885;SDS011;36669;51.428;21.162;2022-08-19T05:44:17;14.43;;;9.93;;
44885;SDS011;36669;51.428;21.162;2022-08-19T05:46:45;19.58;;;10.10;;
44885;SDS011;36669;51.428;21.162;2022-08-19T05:49:11;14.80;;;9.50;;
44885;SDS011;36669;51.428;21.162;2022-08-19T05:51:36;18.63;;;10.85;;
44885;SDS011;36669;51.428;21.162;2022-08-19T05:54:02;14.80;;;9.82;;
44885;SDS011;36669;51.428;21.162;2022-08-19T05:56:29;21.52;;;11.63;;
44885;SDS011;36669;51.428;21.162;2022-08-19T05:58:54;15.18;;;10.27;;
44885;SDS011;36669;51.428;21.162;2022-08-19T06:01:20;16.27;;;10.48;;
44885;SDS011;36669;51.428;21.162;2022-08-19T06:03:46;16.23;;;9.98;;
44885;SDS011;36669;51.428;21.162;2022-08-19T06:06:12;18.17;;;10.85;;
44885;SDS011;36669;51.428;21.162;2022-08-19T06:08:39;20.45;;;10.30;;
44885;SDS011;36669;51.428;21.162;2022-08-19T06:11:21;18.92;;;9.85;;
44885;SDS011;36669;51.428;21.162;2022-08-19T06:14:00;23.33;;;9.77;;
44885;SDS011;36669;51.428;21.162;2022-08-19T06:16:31;13.77;;;9.88;;
44885;SDS011;36669;51.428;21.162;2022-08-19T06:18:58;18.40;;;10.10;;
44885;SDS011;36669;51.428;21.162;2022-08-19T06:21:26;20.20;;;9.63;;
44885;SDS011;36669;51.428;21.162;2022-08-19T06:23:53;18.27;;;9.90;;
44885;SDS011;36669;51.428;21.162;2022-08-19T06:26:20;17.92;;;9.50;;
44885;SDS011;36669;51.428;21.162;2022-08-19T06:28:47;17.55;;;10.10;;
44885;SDS011;36669;51.428;21.162;2022-08-19T06:31:20;16.63;;;9.77;;
44885;SDS011;36669;51.428;21.162;2022-08-19T06:33:49;15.20;;;9.73;;
44885;SDS011;36669;51.428;21.162;2022-08-19T06:36:16;13.30;;;8.80;;
44885;SDS011;36669;51.428;21.162;2022-08-19T06:38:43;15.85;;;9.15;;
44885;SDS011;36669;51.428;21.162;2022-08-19T06:41:09;14.32;;;8.82;;
44885;SDS011;36669;51.428;21.162;2022-08-19T06:43:35;11.80;;;8.23;;
44885;SDS011;36669;51.428;21.162;2022-08-19T06:46:00;16.98;;;8.43;;
44885;SDS011;36669;51.428;21.162;2022-08-19T06:48:26;13.00;;;8.15;;
44885;SDS011;36669;51.428;21.162;2022-08-19T06:50:51;15.10;;;8.45;;
44885;SDS011;36669;51.428;21.162;2022-08-19T06:53:17;19.42;;;8.00;;
44885;SDS011;36669;51.428;21.162;2022-08-19T06:55:42;16.65;;;7.85;;
44885;SDS011;36669;51.428;21.162;2022-08-19T06:58:08;19.13;;;8.10;;
44885;SDS011;36669;51.428;21.162;2022-08-19T07:00:33;16.38;;;8.18;;
44885;SDS011;36669;51.428;21.162;2022-08-19T07:03:01;16.10;;;7.75;;
44885;SDS011;36669;51.428;21.162;2022-08-19T07:05:26;12.65;;;7.45;;
44885;SDS011;36669;51.428;21.162;2022-08-19T07:07:52;13.15;;;7.38;;
44885;SDS011;36669;51.428;21.162;2022-08-19T07:10:17;13.35;;;7.47;;
44885;SDS011;36669;51.428;21.162;2022-08-19T07:12:43;15.05;;;7.78;;
44885;SDS011;36669;51.428;21.162;2022-08-19T07:15:09;13.25;;;7.47;;
44885;SDS011;36669;51.428;21.162;2022-08-19T07:17:36;15.05;;;7.03;;
44885;SDS011;36669;51.428;21.162;2022-08-19T07:20:02;13.40;;;7.07;;
44885;SDS011;36669;51.428;21.162;2022-08-19T07:22:28;14.15;;;7.80;;
44885;SDS011;36669;51.428;21.162;2022-08-19T07:24:54;15.95;;;7.07;;
44885;SDS011;36669;51.428;21.162;2022-08-19T07:27:19;13.60;;;6.80;;
44885;SDS011;36669;51.428;21.162;2022-08-19T07:29:45;18.67;;;8.00;;
44885;SDS011;36669;51.428;21.162;2022-08-19T07:32:11;13.98;;;6.53;;
44885;SDS011;36669;51.428;21.162;2022-08-19T07:34:36;12.65;;;6.90;;
44885;SDS011;36669;51.428;21.162;2022-08-19T07:37:03;11.95;;;7.60;;
44885;SDS011;36669;51.428;21.162;2022-08-19T07:39:30;10.38;;;6.60;;
44885;SDS011;36669;51.428;21.162;2022-08-19T07:41:57;14.85;;;6.88;;
44885;SDS011;36669;51.428;21.162;2022-08-19T07:44:25;10.90;;;6.65;;
44885;SDS011;36669;51.428;21.162;2022-08-19T07:46:52;10.63;;;6.32;;
44885;SDS011;36669;51.428;21.162;2022-08-19T07:49:20;10.30;;;6.38;;
44885;SDS011;36669;51.428;21.162;2022-08-19T07:51:47;10.80;;;6.85;;
44885;SDS011;36669;51.428;21.162;2022-08-19T07:54:15;16.15;;;6.05;;
44885;SDS011;36669;51.428;21.162;2022-08-19T07:56:41;17.20;;;6.47;;
44885;SDS011;36669;51.428;21.162;2022-08-19T07:59:07;16.65;;;7.10;;
44885;SDS011;36669;51.428;21.162;2022-08-19T08:01:32;11.25;;;6.95;;
44885;SDS011;36669;51.428;21.162;2022-08-19T08:03:58;14.63;;;7.15;;
44885;SDS011;36669;51.428;21.162;2022-08-19T08:06:24;15.63;;;7.10;;
44885;SDS011;36669;51.428;21.162;2022-08-19T08:08:49;17.05;;;7.65;;
44885;SDS011;36669;51.428;21.162;2022-08-19T08:11:17;16.02;;;7.40;;
44885;SDS011;36669;51.428;21.162;2022-08-19T08:13:45;18.45;;;7.03;;
44885;SDS011;36669;51.428;21.162;2022-08-19T08:16:12;16.45;;;6.82;;
44885;SDS011;36669;51.428;21.162;2022-08-19T08:18:37;11.88;;;6.78;;
44885;SDS011;36669;51.428;21.162;2022-08-19T08:21:04;11.15;;;6.20;;
44885;SDS011;36669;51.428;21.162;2022-08-19T08:23:30;9.90;;;6.60;;
44885;SDS011;36669;51.428;21.162;2022-08-19T08:25:56;14.55;;;7.00;;
44885;SDS011;36669;51.428;21.162;2022-08-19T08:28:22;14.60;;;6.95;;
44885;SDS011;36669;51.428;21.162;2022-08-19T08:30:48;15.23;;;6.63;;
44885;SDS011;36669;51.428;21.162;2022-08-19T08:33:21;12.65;;;6.80;;
44885;SDS011;36669;51.428;21.162;2022-08-19T08:35:49;23.67;;;7.85;;
44885;SDS011;36669;51.428;21.162;2022-08-19T08:38:14;14.93;;;7.45;;
44885;SDS011;36669;51.428;21.162;2022-08-19T08:43:11;18.10;;;7.40;;
44885;SDS011;36669;51.428;21.162;2022-08-19T08:46:03;11.68;;;6.82;;
44885;SDS011;36669;51.428;21.162;2022-08-19T08:48:44;18.50;;;7.75;;
44885;SDS011;36669;51.428;21.162;2022-08-19T08:51:24;10.57;;;6.75;;
44885;SDS011;36669;51.428;21.162;2022-08-19T08:53:54;16.27;;;7.88;;
44885;SDS011;36669;51.428;21.162;2022-08-19T08:56:21;15.82;;;8.02;;
44885;SDS011;36669;51.428;21.162;2022-08-19T08:58:58;19.42;;;7.47;;
44885;SDS011;36669;51.428;21.162;2022-08-19T09:01:44;14.68;;;7.60;;
44885;SDS011;36669;51.428;21.162;2022-08-19T09:04:10;14.75;;;7.05;;
44885;SDS011;36669;51.428;21.162;2022-08-19T09:09:43;15.73;;;7.78;;
44885;SDS011;36669;51.428;21.162;2022-08-19T09:12:17;15.40;;;8.15;;
44885;SDS011;36669;51.428;21.162;2022-08-19T09:15:01;15.15;;;6.82;;
44885;SDS011;36669;51.428;21.162;2022-08-19T09:17:31;13.50;;;7.07;;
44885;SDS011;36669;51.428;21.162;2022-08-19T09:19:59;17.08;;;6.60;;
44885;SDS011;36669;51.428;21.162;2022-08-19T09:22:24;14.02;;;6.72;;
44885;SDS011;36669;51.428;21.162;2022-08-19T09:24:50;12.95;;;6.80;;
44885;SDS011;36669;51.428;21.162;2022-08-19T09:27:16;14.20;;;7.25;;
44885;SDS011;36669;51.428;21.162;2022-08-19T09:29:42;13.73;;;7.10;;
44885;SDS011;36669;51.428;21.162;2022-08-19T09:32:08;13.00;;;6.82;;
44885;SDS011;36669;51.428;21.162;2022-08-19T09:34:34;10.10;;;6.60;;
44885;SDS011;36669;51.428;21.162;2022-08-19T09:37:00;16.85;;;6.53;;
44885;SDS011;36669;51.428;21.162;2022-08-19T09:39:25;13.35;;;6.85;;
44885;SDS011;36669;51.428;21.162;2022-08-19T09:41:51;12.05;;;6.75;;
44885;SDS011;36669;51.428;21.162;2022-08-19T09:44:17;17.05;;;6.70;;
44885;SDS011;36669;51.428;21.162;2022-08-19T09:46:42;13.65;;;6.57;;
44885;SDS011;36669;51.428;21.162;2022-08-19T09:49:08;11.57;;;6.80;;
44885;SDS011;36669;51.428;21.162;2022-08-19T09:51:33;11.30;;;6.75;;
44885;SDS011;36669;51.428;21.162;2022-08-19T09:54:00;12.00;;;6.85;;
44885;SDS011;36669;51.428;21.162;2022-08-19T09:56:27;13.52;;;5.68;;
44885;SDS011;36669;51.428;21.162;2022-08-19T09:58:53;12.80;;;6.00;;
44885;SDS011;36669;51.428;21.162;2022-08-19T10:01:22;11.00;;;5.78;;
44885;SDS011;36669;51.428;21.162;2022-08-19T10:03:52;13.73;;;6.68;;
44885;SDS011;36669;51.428;21.162;2022-08-19T10:06:19;9.93;;;5.72;;
44885;SDS011;36669;51.428;21.162;2022-08-19T10:08:46;11.73;;;5.80;;
44885;SDS011;36669;51.428;21.162;2022-08-19T10:11:12;12.73;;;5.88;;
44885;SDS011;36669;51.428;21.162;2022-08-19T10:13:39;8.38;;;6.72;;
44885;SDS011;36669;51.428;21.162;2022-08-19T10:16:07;11.75;;;5.72;;
44885;SDS011;36669;51.428;21.162;2022-08-19T10:18:34;18.13;;;5.88;;
44885;SDS011;36669;51.428;21.162;2022-08-19T10:21:08;14.85;;;5.68;;
44885;SDS011;36669;51.428;21.162;2022-08-19T10:23:38;10.13;;;5.40;;
44885;SDS011;36669;51.428;21.162;2022-08-19T10:26:06;12.93;;;5.78;;
44885;SDS011;36669;51.428;21.162;2022-08-19T10:28:35;12.38;;;5.97;;
44885;SDS011;36669;51.428;21.162;2022-08-19T10:31:08;9.55;;;5.55;;
44885;SDS011;36669;51.428;21.162;2022-08-19T10:33:35;9.60;;;5.50;;
44885;SDS011;36669;51.428;21.162;2022-08-19T10:36:06;10.48;;;5.82;;
44885;SDS011;36669;51.428;21.162;2022-08-19T10:38:51;13.45;;;5.95;;
44885;SDS011;36669;51.428;21.162;2022-08-19T10:41:19;16.80;;;5.47;;
44885;SDS011;36669;51.428;21.162;2022-08-19T10:43:46;12.65;;;5.38;;
44885;SDS011;36669;51.428;21.162;2022-08-19T10:46:14;9.60;;;5.93;;
44885;SDS011;36669;51.428;21.162;2022-08-19T10:48:40;11.00;;;5.60;;
44885;SDS011;36669;51.428;21.162;2022-08-19T10:51:07;6.70;;;5.13;;
44885;SDS011;36669;51.428;21.162;2022-08-19T10:53:33;9.90;;;5.88;;
44885;SDS011;36669;51.428;21.162;2022-08-19T10:55:58;11.70;;;6.05;;
44885;SDS011;36669;51.428;21.162;2022-08-19T10:58:24;11.00;;;5.93;;
44885;SDS011;36669;51.428;21.162;2022-08-19T11:00:56;9.60;;;5.80;;
44885;SDS011;36669;51.428;21.162;2022-08-19T11:03:23;13.23;;;6.20;;
44885;SDS011;36669;51.428;21.162;2022-08-19T11:05:57;13.10;;;5.65;;
44885;SDS011;36669;51.428;21.162;2022-08-19T11:08:24;14.25;;;5.38;;
44885;SDS011;36669;51.428;21.162;2022-08-19T11:10:51;10.27;;;5.68;;
44885;SDS011;36669;51.428;21.162;2022-08-19T11:13:17;12.48;;;5.32;;
44885;SDS011;36669;51.428;21.162;2022-08-19T11:15:43;11.25;;;5.22;;
44885;SDS011;36669;51.428;21.162;2022-08-19T11:18:08;14.38;;;5.20;;
44885;SDS011;36669;51.428;21.162;2022-08-19T11:20:34;9.27;;;5.57;;
44885;SDS011;36669;51.428;21.162;2022-08-19T11:22:59;14.13;;;5.03;;
44885;SDS011;36669;51.428;21.162;2022-08-19T11:25:25;8.30;;;5.60;;
44885;SDS011;36669;51.428;21.162;2022-08-19T11:27:50;12.07;;;6.70;;
44885;SDS011;36669;51.428;21.162;2022-08-19T11:30:17;9.30;;;5.70;;
44885;SDS011;36669;51.428;21.162;2022-08-19T11:32:43;7.95;;;5.05;;
44885;SDS011;36669;51.428;21.162;2022-08-19T11:35:08;7.95;;;4.88;;
44885;SDS011;36669;51.428;21.162;2022-08-19T11:37:34;11.55;;;4.75;;
44885;SDS011;36669;51.428;21.162;2022-08-19T11:40:00;7.68;;;4.90;;
44885;SDS011;36669;51.428;21.162;2022-08-19T11:42:25;17.50;;;5.10;;
44885;SDS011;36669;51.428;21.162;2022-08-19T11:44:51;10.45;;;5.70;;
44885;SDS011;36669;51.428;21.162;2022-08-19T11:47:17;7.95;;;4.88;;
44885;SDS011;36669;51.428;21.162;2022-08-19T11:49:42;9.82;;;4.85;;
44885;SDS011;36669;51.428;21.162;2022-08-19T11:52:08;7.80;;;5.00;;
44885;SDS011;36669;51.428;21.162;2022-08-19T11:54:34;10.55;;;4.75;;
44885;SDS011;36669;51.428;21.162;2022-08-19T11:57:02;13.50;;;4.70;;
44885;SDS011;36669;51.428;21.162;2022-08-19T11:59:28;10.38;;;5.05;;
44885;SDS011;36669;51.428;21.162;2022-08-19T12:01:54;11.10;;;4.85;;
44885;SDS011;36669;51.428;21.162;2022-08-19T12:04:19;10.35;;;5.20;;
44885;SDS011;36669;51.428;21.162;2022-08-19T12:06:45;10.40;;;5.15;;
44885;SDS011;36669;51.428;21.162;2022-08-19T12:09:10;5.95;;;4.28;;
44885;SDS011;36669;51.428;21.162;2022-08-19T12:11:36;12.98;;;5.00;;
44885;SDS011;36669;51.428;21.162;2022-08-19T12:14:03;7.80;;;4.93;;
44885;SDS011;36669;51.428;21.162;2022-08-19T12:16:29;9.85;;;5.15;;
44885;SDS011;36669;51.428;21.162;2022-08-19T12:18:56;7.40;;;4.90;;
44885;SDS011;36669;51.428;21.162;2022-08-19T12:21:23;11.80;;;4.85;;
44885;SDS011;36669;51.428;21.162;2022-08-19T12:23:51;9.68;;;4.88;;
44885;SDS011;36669;51.428;21.162;2022-08-19T12:26:17;10.27;;;4.35;;
44885;SDS011;36669;51.428;21.162;2022-08-19T12:28:42;12.52;;;5.32;;
44885;SDS011;36669;51.428;21.162;2022-08-19T12:31:09;9.82;;;4.85;;
44885;SDS011;36669;51.428;21.162;2022-08-19T12:33:35;10.00;;;4.22;;
44885;SDS011;36669;51.428;21.162;2022-08-19T12:36:02;11.45;;;4.75;;
44885;SDS011;36669;51.428;21.162;2022-08-19T12:38:30;9.13;;;4.40;;
44885;SDS011;36669;51.428;21.162;2022-08-19T12:40:58;6.47;;;4.30;;
44885;SDS011;36669;51.428;21.162;2022-08-19T12:43:23;6.72;;;4.68;;
44885;SDS011;36669;51.428;21.162;2022-08-19T12:45:50;7.97;;;4.40;;
44885;SDS011;36669;51.428;21.162;2022-08-19T12:48:15;7.47;;;4.45;;
44885;SDS011;36669;51.428;21.162;2022-08-19T12:50:42;8.45;;;4.28;;
44885;SDS011;36669;51.428;21.162;2022-08-19T12:53:09;12.45;;;4.30;;
44885;SDS011;36669;51.428;21.162;2022-08-19T12:55:34;9.65;;;4.43;;
44885;SDS011;36669;51.428;21.162;2022-08-19T12:58:00;10.70;;;4.50;;
44885;SDS011;36669;51.428;21.162;2022-08-19T13:00:25;7.60;;;4.50;;
44885;SDS011;36669;51.428;21.162;2022-08-19T13:02:51;6.30;;;4.40;;
44885;SDS011;36669;51.428;21.162;2022-08-19T13:05:18;6.28;;;4.35;;
44885;SDS011;36669;51.428;21.162;2022-08-19T13:07:46;7.40;;;4.35;;
44885;SDS011;36669;51.428;21.162;2022-08-19T13:10:13;7.95;;;4.10;;
44885;SDS011;36669;51.428;21.162;2022-08-19T13:12:41;8.65;;;4.43;;
44885;SDS011;36669;51.428;21.162;2022-08-19T13:15:08;5.85;;;4.00;;
44885;SDS011;36669;51.428;21.162;2022-08-19T13:17:34;6.47;;;4.30;;
44885;SDS011;36669;51.428;21.162;2022-08-19T13:20:00;10.48;;;4.55;;
44885;SDS011;36669;51.428;21.162;2022-08-19T13:22:28;8.60;;;4.28;;
44885;SDS011;36669;51.428;21.162;2022-08-19T13:24:55;5.80;;;4.13;;
44885;SDS011;36669;51.428;21.162;2022-08-19T13:27:20;9.80;;;4.70;;
44885;SDS011;36669;51.428;21.162;2022-08-19T13:29:46;10.68;;;4.47;;
44885;SDS011;36669;51.428;21.162;2022-08-19T13:32:11;11.63;;;4.40;;
44885;SDS011;36669;51.428;21.162;2022-08-19T13:34:37;16.27;;;4.65;;
44885;SDS011;36669;51.428;21.162;2022-08-19T13:37:03;12.18;;;4.45;;
44885;SDS011;36669;51.428;21.162;2022-08-19T13:39:30;10.00;;;4.57;;
44885;SDS011;36669;51.428;21.162;2022-08-19T13:41:56;12.57;;;4.93;;
44885;SDS011;36669;51.428;21.162;2022-08-19T13:44:22;14.65;;;4.78;;
44885;SDS011;36669;51.428;21.162;2022-08-19T13:46:48;9.43;;;4.20;;
44885;SDS011;36669;51.428;21.162;2022-08-19T13:49:16;7.72;;;4.28;;
44885;SDS011;36669;51.428;21.162;2022-08-19T13:51:42;11.02;;;8.35;;
44885;SDS011;36669;51.428;21.162;2022-08-19T13:54:09;10.30;;;4.75;;
44885;SDS011;36669;51.428;21.162;2022-08-19T13:56:38;8.93;;;4.78;;
44885;SDS011;36669;51.428;21.162;2022-08-19T13:59:05;6.85;;;4.28;;
44885;SDS011;36669;51.428;21.162;2022-08-19T14:01:31;10.88;;;4.45;;
44885;SDS011;36669;51.428;21.162;2022-08-19T14:03:56;10.32;;;4.68;;
44885;SDS011;36669;51.428;21.162;2022-08-19T14:06:22;9.10;;;4.70;;
44885;SDS011;36669;51.428;21.162;2022-08-19T14:08:48;8.30;;;4.60;;
44885;SDS011;36669;51.428;21.162;2022-08-19T14:11:13;9.90;;;4.97;;
44885;SDS011;36669;51.428;21.162;2022-08-19T14:13:39;9.95;;;4.50;;
44885;SDS011;36669;51.428;21.162;2022-08-19T14:16:08;9.43;;;4.97;;
44885;SDS011;36669;51.428;21.162;2022-08-19T14:18:35;12.25;;;5.57;;
44885;SDS011;36669;51.428;21.162;2022-08-19T14:21:01;9.50;;;4.20;;
44885;SDS011;36669;51.428;21.162;2022-08-19T14:23:26;10.05;;;4.65;;
44885;SDS011;36669;51.428;21.162;2022-08-19T14:25:52;7.40;;;4.32;;